sensor_id;sensor_type;location;lat;lon;timestamp;P1;P2;P0
49656;PMS5003;71194;38.900;-77.124;2023-12-07T00:00:51;4;4;
49656;PMS5003;71194;38.900;-77.124;2023-12-07T00:03:19;4;4;
49656;PMS5003;71194;38.900;-77.124;2023-12-07T00:05:47;7;6;
49656;PMS5003;71194;38.900;-77.124;2023-12-07T00:08:15;6;6;
49656;PMS5003;71194;38.900;-77.124;2023-12-07T00:10:44;4;4;
49656;PMS5003;71194;38.900;-77.124;2023-12-07T00:13:12;4;4;
49656;PMS5003;71194;38.900;-77.124;2023-12-07T00:15:40;9;6;
49656;PMS5003;71194;38.900;-77.124;2023-12-07T00:18:08;5;5;
49656;PMS5003;71194;38.900;-77.124;2023-12-07T00:20:36;4;4;
49656;PMS5003;71194;38.900;-77.124;2023-12-07T00:23:04;6;6;
49656;PMS5003;71194;38.900;-77.124;2023-12-07T00:25:33;8;8;
49656;PMS5003;71194;38.900;-77.124;2023-12-07T00:28:00;4;4;
49656;PMS5003;71194;38.900;-77.124;2023-12-07T00:30:29;6;6;
49656;PMS5003;71194;38.900;-77.124;2023-12-07T00:32:57;4;4;
49656;PMS5003;71194;38.900;-77.124;2023-12-07T00:35:25;6;5;
49656;PMS5003;71194;38.900;-77.124;2023-12-07T00:37:53;7;7;
49656;PMS5003;71194;38.900;-77.124;2023-12-07T00:40:21;6;4;
49656;PMS5003;71194;38.900;-77.124;2023-12-07T00:42:49;8;7;
49656;PMS5003;71194;38.900;-77.124;2023-12-07T00:45:18;8;7;
49656;PMS5003;71194;38.900;-77.124;2023-12-07T00:47:45;7;7;
49656;PMS5003;71194;38.900;-77.124;2023-12-07T00:50:14;5;5;
49656;PMS5003;71194;38.900;-77.124;2023-12-07T00:52:42;7;7;
49656;PMS5003;71194;38.900;-77.124;2023-12-07T00:55:10;7;7;
49656;PMS5003;71194;38.900;-77.124;2023-12-07T00:57:38;7;6;
49656;PMS5003;71194;38.900;-77.124;2023-12-07T01:00:06;16;16;
49656;PMS5003;71194;38.900;-77.124;2023-12-07T01:02:35;8;8;
49656;PMS5003;71194;38.900;-77.124;2023-12-07T01:05:03;8;8;
49656;PMS5003;71194;38.900;-77.124;2023-12-07T01:07:31;9;8;
49656;PMS5003;71194;38.900;-77.124;2023-12-07T01:09:59;8;8;
49656;PMS5003;71194;38.900;-77.124;2023-12-07T01:12:27;8;7;
49656;PMS5003;71194;38.900;-77.124;2023-12-07T01:14:56;6;6;
49656;PMS5003;71194;38.900;-77.124;2023-12-07T01:17:24;8;6;
49656;PMS5003;71194;38.900;-77.124;2023-12-07T01:19:52;5;5;
49656;PMS5003;71194;38.900;-77.124;2023-12-07T01:22:20;8;8;
49656;PMS5003;71194;38.900;-77.124;2023-12-07T01:24:48;13;11;
49656;PMS5003;71194;38.900;-77.124;2023-12-07T01:27:16;8;8;
49656;PMS5003;71194;38.900;-77.124;2023-12-07T01:29:44;8;8;
49656;PMS5003;71194;38.900;-77.124;2023-12-07T01:32:13;10;8;
49656;PMS5003;71194;38.900;-77.124;2023-12-07T01:34:41;8;8;
49656;PMS5003;71194;38.900;-77.124;2023-12-07T01:37:09;8;8;
49656;PMS5003;71194;38.900;-77.124;2023-12-07T01:39:37;8;7;
49656;PMS5003;71194;38.900;-77.124;2023-12-07T01:42:05;10;8;
49656;PMS5003;71194;38.900;-77.124;2023-12-07T01:44:34;10;10;
49656;PMS5003;71194;38.900;-77.124;2023-12-07T01:47:03;12;11;
49656;PMS5003;71194;38.900;-77.124;2023-12-07T01:49:31;12;11;
49656;PMS5003;71194;38.900;-77.124;2023-12-07T01:52:00;7;6;
49656;PMS5003;71194;38.900;-77.124;2023-12-07T01:54:29;8;8;
49656;PMS5003;71194;38.900;-77.124;2023-12-07T01:56:57;6;6;
49656;PMS5003;71194;38.900;-77.124;2023-12-07T01:59:26;8;8;
49656;PMS5003;71194;38.900;-77.124;2023-12-07T02:01:54;8;8;
49656;PMS5003;71194;38.900;-77.124;2023-12-07T02:04:22;8;8;
49656;PMS5003;71194;38.900;-77.124;2023-12-07T02:06:50;8;8;
49656;PMS5003;71194;38.900;-77.124;2023-12-07T02:09:21;7;7;
49656;PMS5003;71194;38.900;-77.124;2023-12-07T02:11:49;9;8;
49656;PMS5003;71194;38.900;-77.124;2023-12-07T02:14:17;7;7;
49656;PMS5003;71194;38.900;-77.124;2023-12-07T02:16:47;9;8;
49656;PMS5003;71194;38.900;-77.124;2023-12-07T02:19:23;8;8;
49656;PMS5003;71194;38.900;-77.124;2023-12-07T02:22:10;7;6;
49656;PMS5003;71194;38.900;-77.124;2023-12-07T02:24:45;12;8;
49656;PMS5003;71194;38.900;-77.124;2023-12-07T02:27:33;9;8;
49656;PMS5003;71194;38.900;-77.124;2023-12-07T02:30:03;8;8;
49656;PMS5003;71194;38.900;-77.124;2023-12-07T02:32:31;6;6;
49656;PMS5003;71194;38.900;-77.124;2023-12-07T02:34:59;7;7;
49656;PMS5003;71194;38.900;-77.124;2023-12-07T02:37:28;9;8;
49656;PMS5003;71194;38.900;-77.124;2023-12-07T02:40:02;8;8;
49656;PMS5003;71194;38.900;-77.124;2023-12-07T02:42:32;8;7;
49656;PMS5003;71194;38.900;-77.124;2023-12-07T02:45:01;8;8;
49656;PMS5003;71194;38.900;-77.124;2023-12-07T02:47:30;8;8;
49656;PMS5003;71194;38.900;-77.124;2023-12-07T02:49:59;8;8;
49656;PMS5003;71194;38.900;-77.124;2023-12-07T02:52:27;9;9;
49656;PMS5003;71194;38.900;-77.124;2023-12-07T02:54:55;9;9;
49656;PMS5003;71194;38.900;-77.124;2023-12-07T02:57:23;8;8;
49656;PMS5003;71194;38.900;-77.124;2023-12-07T02:59:51;7;7;
49656;PMS5003;71194;38.900;-77.124;2023-12-07T03:02:19;9;8;
49656;PMS5003;71194;38.900;-77.124;2023-12-07T03:04:47;8;8;
49656;PMS5003;71194;38.900;-77.124;2023-12-07T03:07:16;8;8;
49656;PMS5003;71194;38.900;-77.124;2023-12-07T03:09:43;11;9;
49656;PMS5003;71194;38.900;-77.124;2023-12-07T03:12:12;8;7;
49656;PMS5003;71194;38.900;-77.124;2023-12-07T03:14:40;8;8;
49656;PMS5003;71194;38.900;-77.124;2023-12-07T03:17:08;8;8;
49656;PMS5003;71194;38.900;-77.124;2023-12-07T03:19:37;9;9;
49656;PMS5003;71194;38.900;-77.124;2023-12-07T03:22:05;9;9;
49656;PMS5003;71194;38.900;-77.124;2023-12-07T03:24:34;9;9;
49656;PMS5003;71194;38.900;-77.124;2023-12-07T03:27:02;9;8;
49656;PMS5003;71194;38.900;-77.124;2023-12-07T03:29:31;11;9;
49656;PMS5003;71194;38.900;-77.124;2023-12-07T03:31:59;8;8;
49656;PMS5003;71194;38.900;-77.124;2023-12-07T03:34:27;8;8;
49656;PMS5003;71194;38.900;-77.124;2023-12-07T03:36:55;8;7;
49656;PMS5003;71194;38.900;-77.124;2023-12-07T03:39:23;9;8;
49656;PMS5003;71194;38.900;-77.124;2023-12-07T03:41:51;8;8;
49656;PMS5003;71194;38.900;-77.124;2023-12-07T03:44:19;8;8;
49656;PMS5003;71194;38.900;-77.124;2023-12-07T03:46:47;8;8;
49656;PMS5003;71194;38.900;-77.124;2023-12-07T03:49:16;9;8;
49656;PMS5003;71194;38.900;-77.124;2023-12-07T03:51:44;8;8;
49656;PMS5003;71194;38.900;-77.124;2023-12-07T03:54:12;8;8;
49656;PMS5003;71194;38.900;-77.124;2023-12-07T03:56:40;8;8;
49656;PMS5003;71194;38.900;-77.124;2023-12-07T03:59:08;8;8;
49656;PMS5003;71194;38.900;-77.124;2023-12-07T04:01:36;8;7;
49656;PMS5003;71194;38.900;-77.124;2023-12-07T04:04:04;8;8;
49656;PMS5003;71194;38.900;-77.124;2023-12-07T04:06:32;8;8;
49656;PMS5003;71194;38.900;-77.124;2023-12-07T04:09:00;8;8;
49656;PMS5003;71194;38.900;-77.124;2023-12-07T04:11:28;8;8;
49656;PMS5003;71194;38.900;-77.124;2023-12-07T04:13:57;9;8;
49656;PMS5003;71194;38.900;-77.124;2023-12-07T04:16:24;8;8;
49656;PMS5003;71194;38.900;-77.124;2023-12-07T04:18:52;8;8;
49656;PMS5003;71194;38.900;-77.124;2023-12-07T04:21:20;8;8;
49656;PMS5003;71194;38.900;-77.124;2023-12-07T04:23:49;8;8;
49656;PMS5003;71194;38.900;-77.124;2023-12-07T04:26:17;8;7;
49656;PMS5003;71194;38.900;-77.124;2023-12-07T04:28:45;6;6;
49656;PMS5003;71194;38.900;-77.124;2023-12-07T04:31:13;8;8;
49656;PMS5003;71194;38.900;-77.124;2023-12-07T04:33:41;6;6;
49656;PMS5003;71194;38.900;-77.124;2023-12-07T04:36:09;8;6;
49656;PMS5003;71194;38.900;-77.124;2023-12-07T04:38:37;8;8;
49656;PMS5003;71194;38.900;-77.124;2023-12-07T04:41:05;8;8;
49656;PMS5003;71194;38.900;-77.124;2023-12-07T04:43:34;7;6;
49656;PMS5003;71194;38.900;-77.124;2023-12-07T04:46:03;4;4;
49656;PMS5003;71194;38.900;-77.124;2023-12-07T04:48:30;6;6;
49656;PMS5003;71194;38.900;-77.124;2023-12-07T04:50:58;9;8;
49656;PMS5003;71194;38.900;-77.124;2023-12-07T04:53:27;7;7;
49656;PMS5003;71194;38.900;-77.124;2023-12-07T04:55:55;8;8;
49656;PMS5003;71194;38.900;-77.124;2023-12-07T04:58:23;8;6;
49656;PMS5003;71194;38.900;-77.124;2023-12-07T05:00:51;8;7;
49656;PMS5003;71194;38.900;-77.124;2023-12-07T05:03:19;8;7;
49656;PMS5003;71194;38.900;-77.124;2023-12-07T05:05:47;6;6;
49656;PMS5003;71194;38.900;-77.124;2023-12-07T05:08:15;7;5;
49656;PMS5003;71194;38.900;-77.124;2023-12-07T05:10:43;5;5;
49656;PMS5003;71194;38.900;-77.124;2023-12-07T05:13:12;6;5;
49656;PMS5003;71194;38.900;-77.124;2023-12-07T05:15:40;5;5;
49656;PMS5003;71194;38.900;-77.124;2023-12-07T05:18:08;5;5;
49656;PMS5003;71194;38.900;-77.124;2023-12-07T05:20:36;8;8;
49656;PMS5003;71194;38.900;-77.124;2023-12-07T05:23:04;8;6;
49656;PMS5003;71194;38.900;-77.124;2023-12-07T05:25:32;6;6;
49656;PMS5003;71194;38.900;-77.124;2023-12-07T05:28:00;8;6;
49656;PMS5003;71194;38.900;-77.124;2023-12-07T05:30:29;5;5;
49656;PMS5003;71194;38.900;-77.124;2023-12-07T05:32:57;5;5;
49656;PMS5003;71194;38.900;-77.124;2023-12-07T05:35:24;4;4;
49656;PMS5003;71194;38.900;-77.124;2023-12-07T05:37:52;4;4;
49656;PMS5003;71194;38.900;-77.124;2023-12-07T05:40:20;6;6;
49656;PMS5003;71194;38.900;-77.124;2023-12-07T05:42:49;5;5;
49656;PMS5003;71194;38.900;-77.124;2023-12-07T05:45:17;6;6;
49656;PMS5003;71194;38.900;-77.124;2023-12-07T05:47:45;7;6;
49656;PMS5003;71194;38.900;-77.124;2023-12-07T05:50:13;5;5;
49656;PMS5003;71194;38.900;-77.124;2023-12-07T05:52:41;8;5;
49656;PMS5003;71194;38.900;-77.124;2023-12-07T05:55:09;8;6;
49656;PMS5003;71194;38.900;-77.124;2023-12-07T05:57:38;6;6;
49656;PMS5003;71194;38.900;-77.124;2023-12-07T06:00:06;4;4;
49656;PMS5003;71194;38.900;-77.124;2023-12-07T06:02:35;6;6;
49656;PMS5003;71194;38.900;-77.124;2023-12-07T06:05:03;6;6;
49656;PMS5003;71194;38.900;-77.124;2023-12-07T06:07:32;5;5;
49656;PMS5003;71194;38.900;-77.124;2023-12-07T06:10:00;4;4;
49656;PMS5003;71194;38.900;-77.124;2023-12-07T06:12:29;7;6;
49656;PMS5003;71194;38.900;-77.124;2023-12-07T06:14:57;8;7;
49656;PMS5003;71194;38.900;-77.124;2023-12-07T06:17:25;9;8;
49656;PMS5003;71194;38.900;-77.124;2023-12-07T06:19:53;8;7;
49656;PMS5003;71194;38.900;-77.124;2023-12-07T06:22:21;5;5;
49656;PMS5003;71194;38.900;-77.124;2023-12-07T06:24:49;6;5;
49656;PMS5003;71194;38.900;-77.124;2023-12-07T06:27:17;5;5;
49656;PMS5003;71194;38.900;-77.124;2023-12-07T06:29:45;9;8;
49656;PMS5003;71194;38.900;-77.124;2023-12-07T06:32:15;6;6;
49656;PMS5003;71194;38.900;-77.124;2023-12-07T06:34:43;8;7;
49656;PMS5003;71194;38.900;-77.124;2023-12-07T06:37:11;8;6;
49656;PMS5003;71194;38.900;-77.124;2023-12-07T06:39:39;8;7;
49656;PMS5003;71194;38.900;-77.124;2023-12-07T06:42:07;7;7;
49656;PMS5003;71194;38.900;-77.124;2023-12-07T06:44:36;5;4;
49656;PMS5003;71194;38.900;-77.124;2023-12-07T06:47:03;8;6;
49656;PMS5003;71194;38.900;-77.124;2023-12-07T06:49:32;5;5;
49656;PMS5003;71194;38.900;-77.124;2023-12-07T06:51:59;5;5;
49656;PMS5003;71194;38.900;-77.124;2023-12-07T06:54:28;8;7;
49656;PMS5003;71194;38.900;-77.124;2023-12-07T06:56:56;7;7;
49656;PMS5003;71194;38.900;-77.124;2023-12-07T06:59:24;9;8;
49656;PMS5003;71194;38.900;-77.124;2023-12-07T07:01:52;8;8;
49656;PMS5003;71194;38.900;-77.124;2023-12-07T07:04:20;6;6;
49656;PMS5003;71194;38.900;-77.124;2023-12-07T07:06:48;5;5;
49656;PMS5003;71194;38.900;-77.124;2023-12-07T07:09:17;4;4;
49656;PMS5003;71194;38.900;-77.124;2023-12-07T07:11:47;4;4;
49656;PMS5003;71194;38.900;-77.124;2023-12-07T07:14:15;5;3;
49656;PMS5003;71194;38.900;-77.124;2023-12-07T07:16:43;6;6;
49656;PMS5003;71194;38.900;-77.124;2023-12-07T07:19:13;7;7;
49656;PMS5003;71194;38.900;-77.124;2023-12-07T07:21:41;9;8;
49656;PMS5003;71194;38.900;-77.124;2023-12-07T07:24:09;8;8;
49656;PMS5003;71194;38.900;-77.124;2023-12-07T07:26:38;5;5;
49656;PMS5003;71194;38.900;-77.124;2023-12-07T07:29:06;5;5;
49656;PMS5003;71194;38.900;-77.124;2023-12-07T07:31:34;5;4;
49656;PMS5003;71194;38.900;-77.124;2023-12-07T07:34:02;7;6;
49656;PMS5003;71194;38.900;-77.124;2023-12-07T07:36:31;9;8;
49656;PMS5003;71194;38.900;-77.124;2023-12-07T07:38:59;8;7;
49656;PMS5003;71194;38.900;-77.124;2023-12-07T07:41:27;10;8;
49656;PMS5003;71194;38.900;-77.124;2023-12-07T07:43:54;7;7;
49656;PMS5003;71194;38.900;-77.124;2023-12-07T07:46:22;7;7;
49656;PMS5003;71194;38.900;-77.124;2023-12-07T07:48:51;4;4;
49656;PMS5003;71194;38.900;-77.124;2023-12-07T07:51:19;7;6;
49656;PMS5003;71194;38.900;-77.124;2023-12-07T07:53:47;5;5;
49656;PMS5003;71194;38.900;-77.124;2023-12-07T07:56:15;5;4;
49656;PMS5003;71194;38.900;-77.124;2023-12-07T07:58:44;7;6;
49656;PMS5003;71194;38.900;-77.124;2023-12-07T08:01:12;5;5;
49656;PMS5003;71194;38.900;-77.124;2023-12-07T08:03:40;6;6;
49656;PMS5003;71194;38.900;-77.124;2023-12-07T08:06:08;6;6;
49656;PMS5003;71194;38.900;-77.124;2023-12-07T08:08:36;10;9;
49656;PMS5003;71194;38.900;-77.124;2023-12-07T08:11:04;7;6;
49656;PMS5003;71194;38.900;-77.124;2023-12-07T08:13:33;6;6;
49656;PMS5003;71194;38.900;-77.124;2023-12-07T08:16:00;7;5;
49656;PMS5003;71194;38.900;-77.124;2023-12-07T08:18:28;7;6;
49656;PMS5003;71194;38.900;-77.124;2023-12-07T08:20:57;6;4;
49656;PMS5003;71194;38.900;-77.124;2023-12-07T08:23:25;7;5;
49656;PMS5003;71194;38.900;-77.124;2023-12-07T08:25:53;8;5;
49656;PMS5003;71194;38.900;-77.124;2023-12-07T08:28:21;5;5;
49656;PMS5003;71194;38.900;-77.124;2023-12-07T08:30:49;4;4;
49656;PMS5003;71194;38.900;-77.124;2023-12-07T08:33:17;3;3;
49656;PMS5003;71194;38.900;-77.124;2023-12-07T08:35:46;6;5;
49656;PMS5003;71194;38.900;-77.124;2023-12-07T08:38:14;5;5;
49656;PMS5003;71194;38.900;-77.124;2023-12-07T08:40:42;6;6;
49656;PMS5003;71194;38.900;-77.124;2023-12-07T08:43:10;5;4;
49656;PMS5003;71194;38.900;-77.124;2023-12-07T08:45:39;5;4;
49656;PMS5003;71194;38.900;-77.124;2023-12-07T08:48:07;4;3;
49656;PMS5003;71194;38.900;-77.124;2023-12-07T08:50:35;5;3;
49656;PMS5003;71194;38.900;-77.124;2023-12-07T08:53:03;5;3;
49656;PMS5003;71194;38.900;-77.124;2023-12-07T08:55:31;5;5;
49656;PMS5003;71194;38.900;-77.124;2023-12-07T08:57:59;5;5;
49656;PMS5003;71194;38.900;-77.124;2023-12-07T09:00:28;4;4;
49656;PMS5003;71194;38.900;-77.124;2023-12-07T09:02:56;4;3;
49656;PMS5003;71194;38.900;-77.124;2023-12-07T09:05:25;4;4;
49656;PMS5003;71194;38.900;-77.124;2023-12-07T09:07:57;4;4;
49656;PMS5003;71194;38.900;-77.124;2023-12-07T09:10:26;4;4;
49656;PMS5003;71194;38.900;-77.124;2023-12-07T09:12:54;6;6;
49656;PMS5003;71194;38.900;-77.124;2023-12-07T09:15:22;6;5;
49656;PMS5003;71194;38.900;-77.124;2023-12-07T09:17:50;8;6;
49656;PMS5003;71194;38.900;-77.124;2023-12-07T09:20:18;5;5;
49656;PMS5003;71194;38.900;-77.124;2023-12-07T09:22:46;6;5;
49656;PMS5003;71194;38.900;-77.124;2023-12-07T09:25:15;4;4;
49656;PMS5003;71194;38.900;-77.124;2023-12-07T09:27:43;4;4;
49656;PMS5003;71194;38.900;-77.124;2023-12-07T09:30:12;4;4;
49656;PMS5003;71194;38.900;-77.124;2023-12-07T09:32:40;4;4;
49656;PMS5003;71194;38.900;-77.124;2023-12-07T09:35:09;4;4;
49656;PMS5003;71194;38.900;-77.124;2023-12-07T09:37:38;6;5;
49656;PMS5003;71194;38.900;-77.124;2023-12-07T09:40:07;6;6;
49656;PMS5003;71194;38.900;-77.124;2023-12-07T09:42:40;12;12;
49656;PMS5003;71194;38.900;-77.124;2023-12-07T09:45:08;24;20;
49656;PMS5003;71194;38.900;-77.124;2023-12-07T09:47:37;19;12;
49656;PMS5003;71194;38.900;-77.124;2023-12-07T09:50:06;9;8;
49656;PMS5003;71194;38.900;-77.124;2023-12-07T09:52:35;7;7;
49656;PMS5003;71194;38.900;-77.124;2023-12-07T09:55:04;17;17;
49656;PMS5003;71194;38.900;-77.124;2023-12-07T09:57:33;7;7;
49656;PMS5003;71194;38.900;-77.124;2023-12-07T10:00:03;5;4;
49656;PMS5003;71194;38.900;-77.124;2023-12-07T10:02:32;5;5;
49656;PMS5003;71194;38.900;-77.124;2023-12-07T10:05:03;6;5;
49656;PMS5003;71194;38.900;-77.124;2023-12-07T10:07:32;5;5;
49656;PMS5003;71194;38.900;-77.124;2023-12-07T10:10:01;4;4;
49656;PMS5003;71194;38.900;-77.124;2023-12-07T10:12:29;5;4;
49656;PMS5003;71194;38.900;-77.124;2023-12-07T10:14:57;4;4;
49656;PMS5003;71194;38.900;-77.124;2023-12-07T10:17:26;4;4;
49656;PMS5003;71194;38.900;-77.124;2023-12-07T10:20:12;6;4;
49656;PMS5003;71194;38.900;-77.124;2023-12-07T10:22:41;6;6;
49656;PMS5003;71194;38.900;-77.124;2023-12-07T10:25:09;8;7;
49656;PMS5003;71194;38.900;-77.124;2023-12-07T10:27:38;5;5;
49656;PMS5003;71194;38.900;-77.124;2023-12-07T10:30:09;5;5;
49656;PMS5003;71194;38.900;-77.124;2023-12-07T10:32:37;8;7;
49656;PMS5003;71194;38.900;-77.124;2023-12-07T10:35:06;9;7;
49656;PMS5003;71194;38.900;-77.124;2023-12-07T10:37:35;6;6;
49656;PMS5003;71194;38.900;-77.124;2023-12-07T10:40:04;4;4;
49656;PMS5003;71194;38.900;-77.124;2023-12-07T10:42:33;4;4;
49656;PMS5003;71194;38.900;-77.124;2023-12-07T10:45:03;8;7;
49656;PMS5003;71194;38.900;-77.124;2023-12-07T10:47:34;8;7;
49656;PMS5003;71194;38.900;-77.124;2023-12-07T10:50:05;9;8;
49656;PMS5003;71194;38.900;-77.124;2023-12-07T10:52:35;8;8;
49656;PMS5003;71194;38.900;-77.124;2023-12-07T10:55:07;9;9;
49656;PMS5003;71194;38.900;-77.124;2023-12-07T10:57:40;9;8;
49656;PMS5003;71194;38.900;-77.124;2023-12-07T11:00:09;5;5;
49656;PMS5003;71194;38.900;-77.124;2023-12-07T11:02:37;9;7;
49656;PMS5003;71194;38.900;-77.124;2023-12-07T11:05:06;5;5;
49656;PMS5003;71194;38.900;-77.124;2023-12-07T11:07:40;8;8;
49656;PMS5003;71194;38.900;-77.124;2023-12-07T11:10:19;8;7;
49656;PMS5003;71194;38.900;-77.124;2023-12-07T11:12:55;9;9;
49656;PMS5003;71194;38.900;-77.124;2023-12-07T11:15:28;8;7;
49656;PMS5003;71194;38.900;-77.124;2023-12-07T11:17:56;42;35;
49656;PMS5003;71194;38.900;-77.124;2023-12-07T11:20:31;29;27;
49656;PMS5003;71194;38.900;-77.124;2023-12-07T11:23:07;14;14;
49656;PMS5003;71194;38.900;-77.124;2023-12-07T11:25:35;14;11;
49656;PMS5003;71194;38.900;-77.124;2023-12-07T11:28:04;12;9;
49656;PMS5003;71194;38.900;-77.124;2023-12-07T11:30:35;8;8;
49656;PMS5003;71194;38.900;-77.124;2023-12-07T11:33:03;10;9;
49656;PMS5003;71194;38.900;-77.124;2023-12-07T11:35:31;9;9;
49656;PMS5003;71194;38.900;-77.124;2023-12-07T11:38:01;7;7;
49656;PMS5003;71194;38.900;-77.124;2023-12-07T11:40:31;11;8;
49656;PMS5003;71194;38.900;-77.124;2023-12-07T11:43:02;9;5;
49656;PMS5003;71194;38.900;-77.124;2023-12-07T11:45:39;9;8;
49656;PMS5003;71194;38.900;-77.124;2023-12-07T11:48:09;8;8;
49656;PMS5003;71194;38.900;-77.124;2023-12-07T11:50:53;8;8;
49656;PMS5003;71194;38.900;-77.124;2023-12-07T11:53:23;8;8;
49656;PMS5003;71194;38.900;-77.124;2023-12-07T11:55:52;11;9;
49656;PMS5003;71194;38.900;-77.124;2023-12-07T11:58:20;10;9;
49656;PMS5003;71194;38.900;-77.124;2023-12-07T12:00:48;14;11;
49656;PMS5003;71194;38.900;-77.124;2023-12-07T12:03:19;10;10;
49656;PMS5003;71194;38.900;-77.124;2023-12-07T12:05:47;15;13;
49656;PMS5003;71194;38.900;-77.124;2023-12-07T12:08:16;12;12;
49656;PMS5003;71194;38.900;-77.124;2023-12-07T12:10:45;14;13;
49656;PMS5003;71194;38.900;-77.124;2023-12-07T12:13:15;10;10;
49656;PMS5003;71194;38.900;-77.124;2023-12-07T12:15:43;14;11;
49656;PMS5003;71194;38.900;-77.124;2023-12-07T12:18:12;10;10;
49656;PMS5003;71194;38.900;-77.124;2023-12-07T12:20:40;13;11;
49656;PMS5003;71194;38.900;-77.124;2023-12-07T12:23:08;14;14;
49656;PMS5003;71194;38.900;-77.124;2023-12-07T12:25:36;14;13;
49656;PMS5003;71194;38.900;-77.124;2023-12-07T12:28:04;10;10;
49656;PMS5003;71194;38.900;-77.124;2023-12-07T12:30:33;14;14;
49656;PMS5003;71194;38.900;-77.124;2023-12-07T12:33:01;11;10;
49656;PMS5003;71194;38.900;-77.124;2023-12-07T12:35:29;14;12;
49656;PMS5003;71194;38.900;-77.124;2023-12-07T12:37:57;9;9;
49656;PMS5003;71194;38.900;-77.124;2023-12-07T12:40:27;10;10;
49656;PMS5003;71194;38.900;-77.124;2023-12-07T12:42:55;12;11;
49656;PMS5003;71194;38.900;-77.124;2023-12-07T12:45:23;9;9;
49656;PMS5003;71194;38.900;-77.124;2023-12-07T12:47:51;11;9;
49656;PMS5003;71194;38.900;-77.124;2023-12-07T12:50:36;11;10;
49656;PMS5003;71194;38.900;-77.124;2023-12-07T12:53:05;15;15;
49656;PMS5003;71194;38.900;-77.124;2023-12-07T12:55:34;14;13;
49656;PMS5003;71194;38.900;-77.124;2023-12-07T12:58:04;14;12;
49656;PMS5003;71194;38.900;-77.124;2023-12-07T13:00:33;14;11;
49656;PMS5003;71194;38.900;-77.124;2023-12-07T13:03:02;13;13;
49656;PMS5003;71194;38.900;-77.124;2023-12-07T13:05:32;10;10;
49656;PMS5003;71194;38.900;-77.124;2023-12-07T13:08:00;11;11;
49656;PMS5003;71194;38.900;-77.124;2023-12-07T13:10:28;15;12;
49656;PMS5003;71194;38.900;-77.124;2023-12-07T13:12:56;23;19;
49656;PMS5003;71194;38.900;-77.124;2023-12-07T13:15:24;18;16;
49656;PMS5003;71194;38.900;-77.124;2023-12-07T13:17:52;11;11;
49656;PMS5003;71194;38.900;-77.124;2023-12-07T13:20:20;11;10;
49656;PMS5003;71194;38.900;-77.124;2023-12-07T13:22:48;14;13;
49656;PMS5003;71194;38.900;-77.124;2023-12-07T13:25:16;14;12;
49656;PMS5003;71194;38.900;-77.124;2023-12-07T13:27:44;12;10;
49656;PMS5003;71194;38.900;-77.124;2023-12-07T13:30:12;13;13;
49656;PMS5003;71194;38.900;-77.124;2023-12-07T13:32:40;14;14;
49656;PMS5003;71194;38.900;-77.124;2023-12-07T13:35:08;11;10;
49656;PMS5003;71194;38.900;-77.124;2023-12-07T13:37:37;13;12;
49656;PMS5003;71194;38.900;-77.124;2023-12-07T13:40:05;29;24;
49656;PMS5003;71194;38.900;-77.124;2023-12-07T13:42:34;28;22;
49656;PMS5003;71194;38.900;-77.124;2023-12-07T13:45:03;15;13;
49656;PMS5003;71194;38.900;-77.124;2023-12-07T13:47:32;11;10;
49656;PMS5003;71194;38.900;-77.124;2023-12-07T13:50:00;9;9;
49656;PMS5003;71194;38.900;-77.124;2023-12-07T13:52:29;9;9;
49656;PMS5003;71194;38.900;-77.124;2023-12-07T13:54:57;10;9;
49656;PMS5003;71194;38.900;-77.124;2023-12-07T13:57:25;9;9;
49656;PMS5003;71194;38.900;-77.124;2023-12-07T13:59:53;13;10;
49656;PMS5003;71194;38.900;-77.124;2023-12-07T14:02:22;15;13;
49656;PMS5003;71194;38.900;-77.124;2023-12-07T14:04:50;14;10;
49656;PMS5003;71194;38.900;-77.124;2023-12-07T14:07:19;14;12;
49656;PMS5003;71194;38.900;-77.124;2023-12-07T14:09:48;13;11;
49656;PMS5003;71194;38.900;-77.124;2023-12-07T14:12:17;9;9;
49656;PMS5003;71194;38.900;-77.124;2023-12-07T14:14:45;12;10;
49656;PMS5003;71194;38.900;-77.124;2023-12-07T14:17:14;11;11;
49656;PMS5003;71194;38.900;-77.124;2023-12-07T14:19:43;11;11;
49656;PMS5003;71194;38.900;-77.124;2023-12-07T14:22:11;13;12;
49656;PMS5003;71194;38.900;-77.124;2023-12-07T14:24:39;12;11;
49656;PMS5003;71194;38.900;-77.124;2023-12-07T14:27:07;11;11;
49656;PMS5003;71194;38.900;-77.124;2023-12-07T14:29:35;10;8;
49656;PMS5003;71194;38.900;-77.124;2023-12-07T14:32:03;12;12;
49656;PMS5003;71194;38.900;-77.124;2023-12-07T14:34:31;12;11;
49656;PMS5003;71194;38.900;-77.124;2023-12-07T14:36:59;12;10;
49656;PMS5003;71194;38.900;-77.124;2023-12-07T14:39:27;10;10;
49656;PMS5003;71194;38.900;-77.124;2023-12-07T14:41:55;12;12;
49656;PMS5003;71194;38.900;-77.124;2023-12-07T14:44:23;8;8;
49656;PMS5003;71194;38.900;-77.124;2023-12-07T14:46:51;12;11;
49656;PMS5003;71194;38.900;-77.124;2023-12-07T14:49:19;12;11;
49656;PMS5003;71194;38.900;-77.124;2023-12-07T14:51:47;10;9;
49656;PMS5003;71194;38.900;-77.124;2023-12-07T14:54:15;8;8;
49656;PMS5003;71194;38.900;-77.124;2023-12-07T14:56:43;8;8;
49656;PMS5003;71194;38.900;-77.124;2023-12-07T14:59:11;9;9;
49656;PMS5003;71194;38.900;-77.124;2023-12-07T15:01:39;11;9;
49656;PMS5003;71194;38.900;-77.124;2023-12-07T15:04:07;12;10;
49656;PMS5003;71194;38.900;-77.124;2023-12-07T15:06:35;10;10;
49656;PMS5003;71194;38.900;-77.124;2023-12-07T15:09:03;10;10;
49656;PMS5003;71194;38.900;-77.124;2023-12-07T15:11:31;10;9;
49656;PMS5003;71194;38.900;-77.124;2023-12-07T15:14:00;10;10;
49656;PMS5003;71194;38.900;-77.124;2023-12-07T15:16:28;8;8;
49656;PMS5003;71194;38.900;-77.124;2023-12-07T15:18:56;8;8;
49656;PMS5003;71194;38.900;-77.124;2023-12-07T15:21:24;9;8;
49656;PMS5003;71194;38.900;-77.124;2023-12-07T15:23:52;9;9;
49656;PMS5003;71194;38.900;-77.124;2023-12-07T15:26:21;13;10;
49656;PMS5003;71194;38.900;-77.124;2023-12-07T15:28:49;11;9;
49656;PMS5003;71194;38.900;-77.124;2023-12-07T15:31:17;9;9;
49656;PMS5003;71194;38.900;-77.124;2023-12-07T15:33:45;9;9;
49656;PMS5003;71194;38.900;-77.124;2023-12-07T15:36:13;10;10;
49656;PMS5003;71194;38.900;-77.124;2023-12-07T15:38:41;7;7;
49656;PMS5003;71194;38.900;-77.124;2023-12-07T15:41:09;10;10;
49656;PMS5003;71194;38.900;-77.124;2023-12-07T15:43:37;9;7;
49656;PMS5003;71194;38.900;-77.124;2023-12-07T15:46:05;12;9;
49656;PMS5003;71194;38.900;-77.124;2023-12-07T15:48:33;10;10;
49656;PMS5003;71194;38.900;-77.124;2023-12-07T15:51:01;9;8;
49656;PMS5003;71194;38.900;-77.124;2023-12-07T15:53:29;9;8;
49656;PMS5003;71194;38.900;-77.124;2023-12-07T15:55:57;7;7;
49656;PMS5003;71194;38.900;-77.124;2023-12-07T15:58:25;8;6;
49656;PMS5003;71194;38.900;-77.124;2023-12-07T16:00:53;6;6;
49656;PMS5003;71194;38.900;-77.124;2023-12-07T16:03:21;9;7;
49656;PMS5003;71194;38.900;-77.124;2023-12-07T16:05:49;9;9;
49656;PMS5003;71194;38.900;-77.124;2023-12-07T16:08:17;10;9;
49656;PMS5003;71194;38.900;-77.124;2023-12-07T16:10:45;6;6;
49656;PMS5003;71194;38.900;-77.124;2023-12-07T16:13:13;9;9;
49656;PMS5003;71194;38.900;-77.124;2023-12-07T16:15:41;7;7;
49656;PMS5003;71194;38.900;-77.124;2023-12-07T16:18:10;10;9;